createdAt,value
2023-02-28T00:00:43.689Z,9.681213
2023-02-28T00:01:43.689Z,9.681333
2023-02-28T00:02:43.774Z,9.681144
2023-02-28T00:03:43.721Z,9.680696
2023-02-28T00:04:43.675Z,9.680987
2023-02-28T00:05:43.661Z,9.680686
2023-02-28T00:06:43.667Z,9.681301
2023-02-28T00:07:43.674Z,9.681705
2023-02-28T00:08:43.670Z,9.681705
2023-02-28T00:09:43.636Z,9.680866
2023-02-28T00:10:43.649Z,9.681418
2023-02-28T00:11:43.633Z,9.681401
2023-02-28T00:12:43.622Z,9.681573
2023-02-28T00:13:43.612Z,9.681554
2023-02-28T00:14:43.622Z,9.681854
2023-02-28T00:15:43.630Z,9.681526
2023-02-28T00:16:43.643Z,9.681462
2023-02-28T00:17:43.604Z,9.681263
2023-02-28T00:18:43.590Z,9.681540
2023-02-28T00:19:43.581Z,9.681422
2023-02-28T00:20:43.618Z,9.681479
2023-02-28T00:21:43.611Z,9.681479
2023-02-28T00:22:43.571Z,9.681443
2023-02-28T00:23:43.575Z,9.681012
2023-02-28T00:24:43.553Z,9.680883
2023-02-28T00:25:43.557Z,9.680883
2023-02-28T00:26:43.556Z,9.680883
2023-02-28T00:27:43.574Z,9.680883
2023-02-28T00:28:43.555Z,9.680883
2023-02-28T00:29:43.564Z,9.680883
2023-02-28T00:30:43.558Z,9.680883
2023-02-28T00:31:43.521Z,9.680883
2023-02-28T00:32:43.512Z,9.680883
2023-02-28T00:33:43.518Z,9.680883
2023-02-28T00:34:43.505Z,9.680883
2023-02-28T00:35:43.541Z,9.680883
2023-02-28T00:36:43.497Z,9.680883
2023-02-28T00:37:43.543Z,9.680883
2023-02-28T00:38:43.497Z,9.680883
2023-02-28T00:39:43.466Z,9.680883
2023-02-28T00:40:43.482Z,9.680883
2023-02-28T00:41:43.505Z,9.680883
2023-02-28T00:42:43.451Z,9.680883
2023-02-28T00:43:43.456Z,9.680883
2023-02-28T00:44:43.477Z,9.680883
2023-02-28T00:45:43.447Z,9.680883
2023-02-28T00:46:43.438Z,9.680883
2023-02-28T00:47:43.436Z,9.680883
2023-02-28T00:48:43.450Z,9.680883
2023-02-28T00:49:43.421Z,9.680883
2023-02-28T00:50:43.428Z,9.680883
2023-02-28T00:51:43.422Z,9.680883
2023-02-28T00:52:43.412Z,9.680883
2023-02-28T00:53:43.394Z,9.680883
2023-02-28T00:54:43.399Z,9.680883
2023-02-28T00:55:43.406Z,9.680883
2023-02-28T00:56:43.393Z,9.680883
2023-02-28T00:57:43.393Z,9.680883
2023-02-28T00:58:43.394Z,9.680883
2023-02-28T00:59:43.366Z,9.680883
2023-02-28T01:00:43.350Z,9.680883
2023-02-28T01:01:43.439Z,9.680883
2023-02-28T01:02:43.356Z,9.680883
2023-02-28T01:03:43.346Z,9.680883
2023-02-28T01:04:43.366Z,9.680883
2023-02-28T01:05:43.340Z,9.680883
2023-02-28T01:06:43.339Z,9.680883
2023-02-28T01:07:43.350Z,9.680883
2023-02-28T01:08:43.332Z,9.680883
2023-02-28T01:09:43.321Z,9.680883
2023-02-28T01:10:43.300Z,9.680883
2023-02-28T01:11:43.297Z,9.680883
2023-02-28T01:12:43.295Z,9.680883
2023-02-28T01:13:43.309Z,9.680883
2023-02-28T01:14:43.268Z,9.680883
2023-02-28T01:15:43.281Z,9.680883
2023-02-28T01:16:43.256Z,9.680883
2023-02-28T01:17:43.241Z,9.680883
2023-02-28T01:18:43.245Z,9.680883
2023-02-28T01:19:43.257Z,9.680883
2023-02-28T01:20:43.241Z,9.680883
2023-02-28T01:21:43.230Z,9.680883
2023-02-28T01:22:43.234Z,9.680883
2023-02-28T01:23:43.215Z,9.680883
2023-02-28T01:24:43.214Z,9.680883
2023-02-28T01:25:43.276Z,9.680883
2023-02-28T01:26:43.206Z,9.680883
2023-02-28T01:27:43.205Z,9.680883
2023-02-28T01:28:43.179Z,9.680883
2023-02-28T01:29:43.223Z,9.680883
2023-02-28T01:30:43.268Z,9.680883
2023-02-28T01:31:43.160Z,9.680883
2023-02-28T01:32:43.157Z,9.680883
2023-02-28T01:33:43.187Z,9.680883
2023-02-28T01:34:43.148Z,9.680883
2023-02-28T01:35:43.165Z,9.680883
2023-02-28T01:36:43.158Z,9.680883
2023-02-28T01:37:43.131Z,9.680883
2023-02-28T01:38:43.127Z,9.680883
2023-02-28T01:39:43.133Z,9.680883
2023-02-28T01:40:43.109Z,9.680883
2023-02-28T01:41:43.095Z,9.680883
2023-02-28T01:42:43.105Z,9.680883
2023-02-28T01:43:43.089Z,9.680883
2023-02-28T01:44:43.090Z,9.680883
2023-02-28T01:45:43.093Z,9.680883
2023-02-28T01:46:43.116Z,9.680883
2023-02-28T01:47:43.093Z,9.680883
2023-02-28T01:48:43.058Z,9.680883
2023-02-28T01:49:43.081Z,9.680883
2023-02-28T01:50:43.053Z,9.680883
2023-02-28T01:51:43.059Z,9.680883
2023-02-28T01:52:43.026Z,9.680883
2023-02-28T01:53:43.034Z,9.680883
2023-02-28T01:54:43.066Z,9.680883
2023-02-28T01:55:43.051Z,9.680883
2023-02-28T01:56:43.002Z,9.680883
2023-02-28T01:57:43.027Z,9.680883
2023-02-28T01:58:43.019Z,9.680883
2023-02-28T01:59:43.010Z,9.680883
2023-02-28T02:00:42.997Z,9.680883
2023-02-28T02:01:43.019Z,9.680883
2023-02-28T02:02:43.051Z,9.680883
2023-02-28T02:03:42.973Z,9.680883
2023-02-28T02:04:42.981Z,9.680883
2023-02-28T02:05:42.951Z,9.680883
2023-02-28T02:06:42.962Z,9.680883
2023-02-28T02:07:42.940Z,9.680883
2023-02-28T02:08:42.931Z,9.680883
2023-02-28T02:09:42.956Z,9.680883
2023-02-28T02:10:42.947Z,9.680883
2023-02-28T02:11:42.912Z,9.680883
2023-02-28T02:12:42.910Z,9.680883
2023-02-28T02:13:42.916Z,9.680883
2023-02-28T02:14:42.904Z,9.680883
2023-02-28T02:15:42.920Z,9.680883
2023-02-28T02:16:42.921Z,9.680883
2023-02-28T02:17:42.884Z,9.680883
2023-02-28T02:18:42.877Z,9.680883
2023-02-28T02:19:42.870Z,9.680883
2023-02-28T02:20:42.929Z,9.680883
2023-02-28T02:21:42.845Z,9.681120
2023-02-28T02:22:42.877Z,9.681836
2023-02-28T02:23:42.838Z,9.681764
2023-02-28T02:24:42.853Z,9.682012
2023-02-28T02:25:42.836Z,9.681970
2023-02-28T02:26:42.817Z,9.681733
2023-02-28T02:27:42.848Z,9.681721
2023-02-28T02:28:42.809Z,9.681807
2023-02-28T02:29:42.798Z,9.681787
2023-02-28T02:30:42.798Z,9.681766
2023-02-28T02:31:42.883Z,9.681732
2023-02-28T02:32:42.790Z,9.681572
2023-02-28T02:33:42.789Z,9.681639
2023-02-28T02:34:42.765Z,9.681767
2023-02-28T02:35:42.797Z,9.681673
2023-02-28T02:36:42.795Z,9.681946
2023-02-28T02:37:42.760Z,9.681770
2023-02-28T02:38:42.768Z,9.681687
2023-02-28T02:39:42.734Z,9.681695
2023-02-28T02:40:42.735Z,9.681772
2023-02-28T02:41:42.722Z,9.681023
2023-02-28T02:42:42.724Z,9.680429
2023-02-28T02:43:42.760Z,9.680632
2023-02-28T02:44:42.725Z,9.680470
2023-02-28T02:45:42.729Z,9.680292
2023-02-28T02:46:42.722Z,9.680538
2023-02-28T02:47:42.684Z,9.680905
2023-02-28T02:48:42.696Z,9.681252
2023-02-28T02:49:42.694Z,9.681963
2023-02-28T02:50:42.679Z,9.681681
2023-02-28T02:51:42.670Z,9.681836
2023-02-28T02:52:42.717Z,9.681619
2023-02-28T02:53:42.677Z,9.681842
2023-02-28T02:54:42.649Z,9.681789
2023-02-28T02:55:42.646Z,9.681808
2023-02-28T02:56:42.653Z,9.681167
2023-02-28T02:57:42.645Z,9.680992
2023-02-28T02:58:42.644Z,9.681198
2023-02-28T02:59:42.638Z,9.681035
2023-02-28T03:00:42.649Z,9.681035
2023-02-28T03:01:42.614Z,9.681835
2023-02-28T03:02:42.623Z,9.681878
2023-02-28T03:03:42.658Z,9.681082
2023-02-28T03:04:42.596Z,9.681040
2023-02-28T03:05:42.596Z,9.681040
2023-02-28T03:06:42.575Z,9.681216
2023-02-28T03:07:42.576Z,9.680944
2023-02-28T03:08:42.563Z,9.680944
2023-02-28T03:09:42.575Z,9.680944
2023-02-28T03:10:42.561Z,9.680944
2023-02-28T03:11:42.540Z,9.680944
2023-02-28T03:12:42.571Z,9.680944
2023-02-28T03:13:42.548Z,9.680944
2023-02-28T03:14:42.529Z,9.680944
2023-02-28T03:15:42.517Z,9.680809
2023-02-28T03:16:42.544Z,9.680809
2023-02-28T03:17:42.503Z,9.680809
2023-02-28T03:18:42.502Z,9.680809
2023-02-28T03:19:42.495Z,9.680809
2023-02-28T03:20:42.485Z,9.680809
2023-02-28T03:21:42.474Z,9.680809
2023-02-28T03:22:42.492Z,9.680717
2023-02-28T03:23:42.468Z,9.680717
2023-02-28T03:24:42.472Z,9.680717
2023-02-28T03:25:42.457Z,9.680717
2023-02-28T03:26:42.458Z,9.680717
2023-02-28T03:27:42.458Z,9.680463
2023-02-28T03:28:42.434Z,9.680134
2023-02-28T03:29:42.428Z,9.680309
2023-02-28T03:30:42.427Z,9.680235
2023-02-28T03:31:42.489Z,9.680622
2023-02-28T03:32:42.412Z,9.680019
2023-02-28T03:33:42.427Z,9.680442
2023-02-28T03:34:42.396Z,9.675719
2023-02-28T03:35:42.452Z,9.674612
2023-02-28T03:36:42.393Z,9.677089
2023-02-28T03:37:42.379Z,9.679395
2023-02-28T03:38:42.380Z,9.680574
2023-02-28T03:39:42.379Z,9.682075
2023-02-28T03:40:42.363Z,9.681601
2023-02-28T03:41:42.352Z,9.681593
2023-02-28T03:42:42.362Z,9.681705
2023-02-28T03:43:42.343Z,9.681480
2023-02-28T03:44:42.361Z,9.681606
2023-02-28T03:45:42.379Z,9.681087
2023-02-28T03:46:42.323Z,9.680537
2023-02-28T03:47:42.315Z,9.680420
2023-02-28T03:48:42.315Z,9.680466
2023-02-28T03:49:42.298Z,9.680290
2023-02-28T03:50:42.364Z,9.680601
2023-02-28T03:51:42.293Z,9.680553
2023-02-28T03:52:42.310Z,9.680621
2023-02-28T03:53:42.280Z,9.680673
2023-02-28T03:54:42.278Z,9.680676
2023-02-28T03:55:42.275Z,9.680477
2023-02-28T03:56:42.281Z,9.680248
2023-02-28T03:57:42.239Z,9.680429
2023-02-28T03:58:42.253Z,9.680885
2023-02-28T03:59:42.245Z,9.680783
2023-02-28T04:00:42.241Z,9.680566
2023-02-28T04:01:42.405Z,9.680615
2023-02-28T04:02:42.249Z,9.681769
2023-02-28T04:03:42.252Z,9.681769
2023-02-28T04:04:42.259Z,9.681769
2023-02-28T04:05:42.201Z,9.681769
2023-02-28T04:06:42.198Z,9.681280
2023-02-28T04:07:42.224Z,9.680902
2023-02-28T04:08:42.210Z,9.681308
2023-02-28T04:09:42.185Z,9.681308
2023-02-28T04:10:42.181Z,9.680619
2023-02-28T04:11:42.162Z,9.680619
2023-02-28T04:12:42.157Z,9.681006
2023-02-28T04:13:42.154Z,9.681007
2023-02-28T04:14:42.160Z,9.680773
2023-02-28T04:15:42.152Z,9.680824
2023-02-28T04:16:42.290Z,9.680670
2023-02-28T04:17:42.111Z,9.679987
2023-02-28T04:18:42.167Z,9.679904
2023-02-28T04:19:42.108Z,9.679904
2023-02-28T04:20:42.121Z,9.679938
2023-02-28T04:21:42.097Z,9.680440
2023-02-28T04:22:42.085Z,9.680440
2023-02-28T04:23:42.082Z,9.680999
2023-02-28T04:24:42.086Z,9.680785
2023-02-28T04:25:42.062Z,9.680655
2023-02-28T04:26:42.101Z,9.680673
2023-02-28T04:27:42.073Z,9.680673
2023-02-28T04:28:42.057Z,9.680677
2023-02-28T04:29:42.050Z,9.680846
2023-02-28T04:30:42.057Z,9.680973
2023-02-28T04:31:42.084Z,9.680905
2023-02-28T04:32:42.121Z,9.681189
2023-02-28T04:33:42.032Z,9.681110
2023-02-28T04:34:42.018Z,9.681166
2023-02-28T04:35:42.044Z,9.681048
2023-02-28T04:36:42.028Z,9.681040
2023-02-28T04:37:42.032Z,9.681033
2023-02-28T04:38:42.000Z,9.681006
2023-02-28T04:39:41.976Z,9.681035
2023-02-28T04:40:41.984Z,9.681036
2023-02-28T04:41:41.966Z,9.680995
2023-02-28T04:42:42.001Z,9.680891
2023-02-28T04:43:41.958Z,9.681108
2023-02-28T04:44:41.951Z,9.681395
2023-02-28T04:45:41.979Z,9.681400
2023-02-28T04:46:41.966Z,9.681441
2023-02-28T04:47:41.932Z,9.681314
2023-02-28T04:48:41.926Z,9.681379
2023-02-28T04:49:41.931Z,9.681362
2023-02-28T04:50:41.914Z,9.681386
2023-02-28T04:51:41.923Z,9.681712
2023-02-28T04:52:41.892Z,9.681381
2023-02-28T04:53:41.906Z,9.681491
2023-02-28T04:54:41.885Z,9.681624
2023-02-28T04:55:41.872Z,9.681321
2023-02-28T04:56:41.869Z,9.681423
2023-02-28T04:57:41.882Z,9.681228
2023-02-28T04:58:41.887Z,9.681079
2023-02-28T04:59:41.878Z,9.681270
2023-02-28T05:00:41.848Z,9.681167
2023-02-28T05:01:41.833Z,9.681156
2023-02-28T05:02:41.845Z,9.681128
2023-02-28T05:03:41.828Z,9.681218
2023-02-28T05:04:41.835Z,9.681015
2023-02-28T05:05:41.835Z,9.681092
2023-02-28T05:06:41.806Z,9.681263
2023-02-28T05:07:41.809Z,9.681278
2023-02-28T05:08:41.808Z,9.681182
2023-02-28T05:09:41.804Z,9.681431
2023-02-28T05:10:41.798Z,9.681035
2023-02-28T05:11:41.781Z,9.680962
2023-02-28T05:12:41.763Z,9.680870
2023-02-28T05:13:41.753Z,9.680882
2023-02-28T05:14:41.752Z,9.680764
2023-02-28T05:15:41.739Z,9.680971
2023-02-28T05:16:41.761Z,9.681001
2023-02-28T05:17:41.762Z,9.681648
2023-02-28T05:18:41.791Z,9.681318
2023-02-28T05:19:41.717Z,9.681223
2023-02-28T05:20:41.714Z,9.680917
2023-02-28T05:21:41.739Z,9.680637
2023-02-28T05:22:41.707Z,9.681067
2023-02-28T05:23:41.704Z,9.680609
2023-02-28T05:24:41.712Z,9.681229
2023-02-28T05:25:41.675Z,9.681066
2023-02-28T05:26:41.734Z,9.681179
2023-02-28T05:27:41.674Z,9.680912
2023-02-28T05:28:41.673Z,9.681190
2023-02-28T05:29:41.648Z,9.681394
2023-02-28T05:30:41.646Z,9.681376
2023-02-28T05:31:41.677Z,9.681143
2023-02-28T05:32:41.663Z,9.681224
2023-02-28T05:33:41.642Z,9.681469
2023-02-28T05:34:41.620Z,9.681388
2023-02-28T05:35:41.649Z,9.681682
2023-02-28T05:36:41.610Z,9.681355
2023-02-28T05:37:41.629Z,9.681355
2023-02-28T05:38:41.608Z,9.681470
2023-02-28T05:39:41.642Z,9.681789
2023-02-28T05:40:41.614Z,9.681660
2023-02-28T05:41:41.578Z,9.681719
2023-02-28T05:42:41.586Z,9.681623
2023-02-28T05:43:41.562Z,9.681905
2023-02-28T05:44:41.571Z,9.682017
2023-02-28T05:45:41.605Z,9.682017
2023-02-28T05:46:41.550Z,9.682244
2023-02-28T05:47:41.556Z,9.681616
2023-02-28T05:48:41.578Z,9.681550
2023-02-28T05:49:41.562Z,9.681742
2023-02-28T05:50:41.529Z,9.682016
2023-02-28T05:51:41.530Z,9.682016
2023-02-28T05:52:41.523Z,9.682729
2023-02-28T05:53:41.515Z,9.682384
2023-02-28T05:54:41.526Z,9.682225
2023-02-28T05:55:41.488Z,9.682636
2023-02-28T05:56:41.492Z,9.682409
2023-02-28T05:57:41.498Z,9.681493
2023-02-28T05:58:41.507Z,9.681261
2023-02-28T05:59:41.493Z,9.681548
2023-02-28T06:00:42.406Z,9.681548
2023-02-28T06:01:41.459Z,9.681548
2023-02-28T06:02:41.453Z,9.681401
2023-02-28T06:03:41.470Z,9.681214
2023-02-28T06:04:41.447Z,9.681155
2023-02-28T06:05:41.453Z,9.680934
2023-02-28T06:06:41.427Z,9.680934
2023-02-28T06:07:41.419Z,9.680934
2023-02-28T06:08:41.431Z,9.680934
2023-02-28T06:09:41.439Z,9.680934
2023-02-28T06:10:41.405Z,9.680934
2023-02-28T06:11:41.402Z,9.680934
2023-02-28T06:12:41.401Z,9.681258
2023-02-28T06:13:41.394Z,9.680351
2023-02-28T06:14:41.405Z,9.680696
2023-02-28T06:15:41.395Z,9.680983
2023-02-28T06:16:41.422Z,9.681428
2023-02-28T06:17:41.359Z,9.680951
2023-02-28T06:18:41.365Z,9.682190
2023-02-28T06:19:41.348Z,9.681418
2023-02-28T06:20:41.358Z,9.681714
2023-02-28T06:21:41.353Z,9.682031
2023-02-28T06:22:41.336Z,9.681487
2023-02-28T06:23:41.323Z,9.681562
2023-02-28T06:24:41.315Z,9.681287
2023-02-28T06:25:41.324Z,9.681178
2023-02-28T06:26:41.307Z,9.681640
2023-02-28T06:27:41.305Z,9.681444
2023-02-28T06:28:41.306Z,9.680837
2023-02-28T06:29:41.445Z,9.681204
2023-02-28T06:30:41.274Z,9.681446
2023-02-28T06:31:41.339Z,9.681162
2023-02-28T06:32:41.271Z,9.681294
2023-02-28T06:33:41.266Z,9.681494
2023-02-28T06:34:41.254Z,9.681730
2023-02-28T06:35:41.302Z,9.681730
2023-02-28T06:36:41.249Z,9.681730
2023-02-28T06:37:41.937Z,9.681730
2023-02-28T06:38:41.233Z,9.681730
2023-02-28T06:39:41.221Z,9.681730
2023-02-28T06:40:41.216Z,9.681730
2023-02-28T06:41:53.978Z,9.681730
2023-02-28T06:42:42.232Z,9.681730
2023-02-28T06:43:41.189Z,9.681730
2023-02-28T06:44:41.188Z,9.681730
2023-02-28T06:45:41.188Z,9.681730
2023-02-28T06:46:41.175Z,9.681730
2023-02-28T06:47:41.195Z,9.681730
2023-02-28T06:48:41.198Z,9.681730
2023-02-28T06:49:41.185Z,9.681730
2023-02-28T06:50:41.162Z,9.681730
2023-02-28T06:51:41.152Z,9.681730
2023-02-28T06:52:41.140Z,9.681730
2023-02-28T06:53:41.141Z,9.681730
2023-02-28T06:54:41.135Z,9.681730
2023-02-28T06:55:41.137Z,9.681730
2023-02-28T06:56:41.129Z,9.681730
2023-02-28T06:57:41.121Z,9.681730
2023-02-28T06:58:41.106Z,9.681730
2023-02-28T06:59:41.091Z,9.681733
2023-02-28T07:00:41.108Z,9.681733
2023-02-28T07:01:41.151Z,9.681573
2023-02-28T07:02:41.095Z,9.681860
2023-02-28T07:03:41.102Z,9.681860
2023-02-28T07:04:41.081Z,9.681860
2023-02-28T07:05:41.061Z,9.681993
2023-02-28T07:06:41.061Z,9.682356
2023-02-28T07:07:41.044Z,9.682356
2023-02-28T07:08:41.052Z,9.682356
2023-02-28T07:09:41.048Z,9.682356
2023-02-28T07:10:41.040Z,9.682356
2023-02-28T07:11:41.022Z,9.682356
2023-02-28T07:12:41.023Z,9.682356
2023-02-28T07:13:41.000Z,9.682356
2023-02-28T07:14:41.049Z,9.682356
2023-02-28T07:15:43.942Z,9.682356
2023-02-28T07:16:40.989Z,9.682356
2023-02-28T07:17:40.985Z,9.682356
2023-02-28T07:18:40.977Z,9.682356
2023-02-28T07:19:40.970Z,9.681476
2023-02-28T07:20:40.985Z,9.681346
2023-02-28T07:21:40.960Z,9.681583
2023-02-28T07:22:40.953Z,9.681077
2023-02-28T07:23:40.942Z,9.681472
2023-02-28T07:24:40.946Z,9.681396
2023-02-28T07:25:40.945Z,9.681023
2023-02-28T07:26:40.962Z,9.680355
2023-02-28T07:27:42.263Z,9.680355
2023-02-28T07:28:40.952Z,9.680970
2023-02-28T07:29:40.913Z,9.680858
2023-02-28T07:30:40.901Z,9.681435
2023-02-28T07:31:40.922Z,9.681634
2023-02-28T07:32:41.674Z,9.681344
2023-02-28T07:33:40.944Z,9.681521
2023-02-28T07:34:40.903Z,9.681727
2023-02-28T07:35:40.906Z,9.682072
2023-02-28T07:36:40.879Z,9.681586
2023-02-28T07:37:40.865Z,9.681160
2023-02-28T07:38:40.871Z,9.681491
2023-02-28T07:39:40.887Z,9.681316
2023-02-28T07:40:40.862Z,9.681540
2023-02-28T07:41:40.844Z,9.680981
2023-02-28T07:42:40.878Z,9.680632
2023-02-28T07:43:40.835Z,9.681119
2023-02-28T07:44:40.832Z,9.681168
2023-02-28T07:45:40.867Z,9.681148
2023-02-28T07:46:40.908Z,9.680928
2023-02-28T07:47:40.813Z,9.681149
2023-02-28T07:48:40.806Z,9.681036
2023-02-28T07:49:40.808Z,9.680469
2023-02-28T07:50:40.809Z,9.680502
2023-02-28T07:51:40.813Z,9.680328
2023-02-28T07:52:40.774Z,9.680624
2023-02-28T07:53:40.780Z,9.680887
2023-02-28T07:54:40.791Z,9.681278
2023-02-28T07:55:40.776Z,9.681313
2023-02-28T07:56:40.774Z,9.681364
2023-02-28T07:57:40.755Z,9.681336
2023-02-28T07:58:40.780Z,9.681386
2023-02-28T07:59:40.747Z,9.681146
2023-02-28T08:00:40.818Z,9.681146
2023-02-28T08:01:40.741Z,9.681216
2023-02-28T08:02:40.744Z,9.681425
2023-02-28T08:03:40.732Z,9.681506
2023-02-28T08:04:40.739Z,9.681886
2023-02-28T08:05:40.708Z,9.681364
2023-02-28T08:06:40.692Z,9.681210
2023-02-28T08:07:40.704Z,9.680794
2023-02-28T08:08:40.716Z,9.681142
2023-02-28T08:09:40.667Z,9.681156
2023-02-28T08:10:40.667Z,9.680889
2023-02-28T08:11:40.657Z,9.681241
2023-02-28T08:12:40.649Z,9.681388
2023-02-28T08:13:40.661Z,9.681355
2023-02-28T08:14:40.690Z,9.681521
2023-02-28T08:15:40.635Z,9.681430
2023-02-28T08:16:40.696Z,9.681556
2023-02-28T08:17:40.623Z,9.681610
2023-02-28T08:18:40.635Z,9.681790
2023-02-28T08:19:40.624Z,9.681684
2023-02-28T08:20:40.612Z,9.681759
2023-02-28T08:21:40.606Z,9.681561
2023-02-28T08:22:40.599Z,9.681241
2023-02-28T08:23:40.607Z,9.681133
2023-02-28T08:24:40.581Z,9.680701
2023-02-28T08:25:40.575Z,9.681109
2023-02-28T08:26:40.574Z,9.681014
2023-02-28T08:27:40.547Z,9.681005
2023-02-28T08:28:40.555Z,9.681671
2023-02-28T08:29:40.535Z,9.681286
2023-02-28T08:30:40.532Z,9.681027
2023-02-28T08:31:40.582Z,9.680902
2023-02-28T08:32:40.627Z,9.681111
2023-02-28T08:33:40.525Z,9.681270
2023-02-28T08:34:40.510Z,9.681135
2023-02-28T08:35:40.560Z,9.681191
2023-02-28T08:36:40.552Z,9.681084
2023-02-28T08:37:40.494Z,9.681233
2023-02-28T08:38:40.521Z,9.681382
2023-02-28T08:39:40.474Z,9.681055
2023-02-28T08:40:40.472Z,9.681080
2023-02-28T08:41:40.460Z,9.681401
2023-02-28T08:42:40.464Z,9.681285
2023-02-28T08:43:40.503Z,9.681177
2023-02-28T08:44:40.438Z,9.680704
2023-02-28T08:45:40.444Z,9.680964
2023-02-28T08:46:40.436Z,9.681021
2023-02-28T08:47:40.451Z,9.680935
2023-02-28T08:48:40.426Z,9.680869
2023-02-28T08:49:40.424Z,9.680848
2023-02-28T08:50:40.431Z,9.681036
2023-02-28T08:51:40.396Z,9.681074
2023-02-28T08:52:40.474Z,9.681169
2023-02-28T08:53:40.394Z,9.680944
2023-02-28T08:54:40.382Z,9.681495
2023-02-28T08:55:40.370Z,9.681036
2023-02-28T08:56:40.379Z,9.680886
2023-02-28T08:57:40.353Z,9.680801
2023-02-28T08:58:40.368Z,9.680985
2023-02-28T08:59:40.345Z,9.680949
2023-02-28T09:00:40.757Z,9.681162
2023-02-28T09:01:40.357Z,9.681177
2023-02-28T09:02:40.330Z,9.681024
2023-02-28T09:03:40.393Z,9.681899
2023-02-28T09:04:40.317Z,9.681421
2023-02-28T09:05:40.368Z,9.681436
2023-02-28T09:06:40.311Z,9.681011
2023-02-28T09:07:40.290Z,9.681053
2023-02-28T09:08:40.297Z,9.681431
2023-02-28T09:09:40.278Z,9.681437
2023-02-28T09:10:40.278Z,9.681192
2023-02-28T09:11:40.333Z,9.681088
2023-02-28T09:12:40.269Z,9.680992
2023-02-28T09:13:40.251Z,9.681072
2023-02-28T09:14:40.253Z,9.681391
2023-02-28T09:15:40.262Z,9.681769
2023-02-28T09:16:40.274Z,9.680841
2023-02-28T09:17:40.249Z,9.681560
2023-02-28T09:18:40.255Z,9.681254
2023-02-28T09:19:40.230Z,9.681110
2023-02-28T09:20:40.208Z,9.680935
2023-02-28T09:21:40.243Z,9.680880
2023-02-28T09:22:40.223Z,9.681165
2023-02-28T09:23:40.196Z,9.681063
2023-02-28T09:25:40.193Z,9.680539
2023-02-28T09:26:47.218Z,9.680966
2023-02-28T09:27:42.356Z,9.681150
2023-02-28T09:28:40.202Z,9.680937
2023-02-28T09:29:40.188Z,9.680965
2023-02-28T09:30:40.176Z,9.681212
2023-02-28T09:31:40.162Z,9.680849
2023-02-28T09:32:40.146Z,9.680612
2023-02-28T09:33:40.156Z,9.680678
2023-02-28T09:34:40.220Z,9.680998
2023-02-28T09:35:40.165Z,9.681429
2023-02-28T09:36:44.701Z,9.681525
2023-02-28T09:37:41.119Z,9.681024
2023-02-28T09:38:40.111Z,9.680529
2023-02-28T09:39:40.158Z,9.680849
2023-02-28T09:40:40.116Z,9.680729
2023-02-28T09:41:40.097Z,9.680205
2023-02-28T09:42:40.115Z,9.680446
2023-02-28T09:43:40.118Z,9.680535
2023-02-28T09:44:40.121Z,9.681256
2023-02-28T09:45:40.083Z,9.680382
2023-02-28T09:46:40.230Z,9.680094
2023-02-28T09:47:40.069Z,9.681340
2023-02-28T09:48:41.190Z,9.681144
2023-02-28T09:49:40.090Z,9.681140
2023-02-28T09:50:40.054Z,9.680532
2023-02-28T09:51:40.067Z,9.681005
2023-02-28T09:52:40.039Z,9.681130
2023-02-28T09:53:40.176Z,9.680795
2023-02-28T09:54:40.037Z,9.681153
2023-02-28T09:55:46.605Z,9.681129
2023-02-28T09:56:41.033Z,9.681001
2023-02-28T09:57:40.023Z,9.680752
2023-02-28T09:58:40.002Z,9.680816
2023-02-28T09:59:40.011Z,9.681005
2023-02-28T10:00:40.012Z,9.680826
2023-02-28T10:01:40.121Z,9.680677
2023-02-28T10:02:39.983Z,9.680887
2023-02-28T10:03:39.987Z,9.680676
2023-02-28T10:04:40.239Z,9.681050
2023-02-28T10:05:39.994Z,9.680794
2023-02-28T10:06:39.955Z,9.680975
2023-02-28T10:07:39.979Z,9.681046
2023-02-28T10:08:39.976Z,9.680994
2023-02-28T10:09:39.941Z,9.680917
2023-02-28T10:10:39.929Z,9.681000
2023-02-28T10:11:39.931Z,9.681125
2023-02-28T10:12:39.930Z,9.681140
2023-02-28T10:13:39.946Z,9.680996
2023-02-28T10:14:39.903Z,9.680890
2023-02-28T10:15:39.990Z,9.681199
2023-02-28T10:16:39.957Z,9.681331
2023-02-28T10:17:49.451Z,9.681058
2023-02-28T10:18:40.926Z,9.681318
2023-02-28T10:19:39.873Z,9.681210
2023-02-28T10:20:39.871Z,9.681206
2023-02-28T10:21:39.885Z,9.681051
2023-02-28T10:22:39.858Z,9.681110
2023-02-28T10:23:39.850Z,9.680697
2023-02-28T10:24:39.846Z,9.681059
2023-02-28T10:25:39.828Z,9.681072
2023-02-28T10:26:39.840Z,9.681129
2023-02-28T10:27:39.808Z,9.680932
2023-02-28T10:28:39.818Z,9.680831
2023-02-28T10:29:39.803Z,9.681099
2023-02-28T10:30:39.817Z,9.681002
2023-02-28T10:31:39.826Z,9.680408
2023-02-28T10:32:39.801Z,9.680211
2023-02-28T10:33:39.779Z,9.680676
2023-02-28T10:34:39.778Z,9.681119
2023-02-28T10:35:39.769Z,9.681445
2023-02-28T10:36:39.775Z,9.681117
2023-02-28T10:37:39.869Z,9.680596
2023-02-28T10:38:39.754Z,9.681079
2023-02-28T10:39:39.752Z,9.680577
2023-02-28T10:40:39.749Z,9.680700
2023-02-28T10:41:39.759Z,9.680503
2023-02-28T10:42:39.748Z,9.679808
2023-02-28T10:43:39.743Z,9.680694
2023-02-28T10:44:39.713Z,9.680415
2023-02-28T10:45:39.716Z,9.679248
2023-02-28T10:46:39.743Z,9.679353
2023-02-28T10:47:39.718Z,9.680751
2023-02-28T10:48:39.715Z,9.680847
2023-02-28T10:49:39.684Z,9.681077
2023-02-28T10:50:39.674Z,9.681314
2023-02-28T10:51:39.681Z,9.681623
2023-02-28T10:52:39.720Z,9.681331
2023-02-28T10:53:57.716Z,9.681466
2023-02-28T10:54:40.663Z,9.681373
2023-02-28T10:55:39.641Z,9.681232
2023-02-28T10:56:39.666Z,9.681186
2023-02-28T10:57:39.648Z,9.681294
2023-02-28T10:58:39.641Z,9.681722
2023-02-28T10:59:39.634Z,9.681831
2023-02-28T11:00:39.622Z,9.681824
2023-02-28T11:01:39.674Z,9.681607
2023-02-28T11:02:39.622Z,9.681636
2023-02-28T11:03:39.583Z,9.681591
2023-02-28T11:04:39.763Z,9.681522
2023-02-28T11:05:39.566Z,9.681730
2023-02-28T11:06:39.569Z,9.681702
2023-02-28T11:07:50.490Z,9.681533
2023-02-28T11:08:40.555Z,9.681525
2023-02-28T11:09:39.567Z,9.681675
2023-02-28T11:10:39.564Z,9.681433
2023-02-28T11:11:39.532Z,9.681376
2023-02-28T11:12:47.109Z,9.681104
2023-02-28T11:13:40.564Z,9.681434
2023-02-28T11:14:39.547Z,9.681653
2023-02-28T11:15:39.553Z,9.681176
2023-02-28T11:16:39.550Z,9.681531
2023-02-28T11:17:39.495Z,9.681250
2023-02-28T11:18:39.500Z,9.681198
2023-02-28T11:19:39.497Z,9.681292
2023-02-28T11:20:39.485Z,9.681585
2023-02-28T11:21:39.487Z,9.681845
2023-02-28T11:22:39.491Z,9.682038
2023-02-28T11:23:39.487Z,9.681429
2023-02-28T11:24:39.452Z,9.681458
2023-02-28T11:25:39.467Z,9.681385
2023-02-28T11:26:39.434Z,9.681516
2023-02-28T11:27:39.473Z,9.681067
2023-02-28T11:28:39.442Z,9.681097
2023-02-28T11:29:39.497Z,9.681475
2023-02-28T11:30:39.421Z,9.681022
2023-02-28T11:31:39.466Z,9.681028
2023-02-28T11:32:39.570Z,9.681170
2023-02-28T11:33:39.423Z,9.681021
2023-02-28T11:34:39.393Z,9.681393
2023-02-28T11:35:39.427Z,9.681219
2023-02-28T11:36:39.380Z,9.681375
2023-02-28T11:37:39.378Z,9.681123
2023-02-28T11:38:39.375Z,9.681380
2023-02-28T11:39:39.363Z,9.680966
2023-02-28T11:40:39.372Z,9.680861
2023-02-28T11:41:41.302Z,9.681079
2023-02-28T11:42:39.371Z,9.681684
2023-02-28T11:43:39.352Z,9.682159
2023-02-28T11:44:39.345Z,9.681182
2023-02-28T11:45:39.348Z,9.681538